Time;durP1;ratioP1;P1;durP2;ratioP2;P2;SDS_P1;SDS_P2;PMS_P1;PMS_P2;Temp;Humidity;BMP_temperature;BMP_pressure;BME280_temperature;BME280_humidity;BME280_pressure;Samples;Min_cycle;Max_cycle;Signal;HPM_P1;HPM_P2
2022/03/05 00:02:09;;;;;;;7.82;3.38;;;;;;;4.99;57.64;102223.03;4758050;29;120238;-86
2022/03/05 00:04:35;;;;;;;7.72;3.78;;;;;;;5.02;57.78;102227.72;4738271;29;122519;-86
2022/03/05 00:07:01;;;;;;;7.80;3.50;;;;;;;4.92;57.91;102221.00;4749696;29;120360;-86
2022/03/05 00:09:26;;;;;;;11.55;3.75;;;;;;;4.96;58.03;102228.41;4738015;29;121975;-85
2022/03/05 00:11:52;;;;;;;9.80;3.60;;;;;;;4.86;58.22;102208.13;4756285;29;122980;-88
2022/03/05 00:14:18;;;;;;;10.48;3.60;;;;;;;5.02;58.71;102224.22;4756810;29;120695;-87
2022/03/05 00:16:43;;;;;;;10.65;3.53;;;;;;;4.92;59.00;102207.41;4756111;29;121316;-87
2022/03/05 00:19:09;;;;;;;9.98;3.13;;;;;;;5.03;59.69;102223.06;4745134;29;123628;-86
2022/03/05 00:21:35;;;;;;;11.95;3.83;;;;;;;5.06;59.98;102205.97;4773193;29;119453;-86
2022/03/05 00:24:03;;;;;;;14.38;3.72;;;;;;;5.23;60.00;102229.84;4771766;29;120702;-87
2022/03/05 00:26:29;;;;;;;12.10;3.15;;;;;;;5.27;60.18;102233.38;4756794;29;119570;-88
2022/03/05 00:28:54;;;;;;;9.18;3.17;;;;;;;5.38;60.00;102239.66;4758745;29;122084;-86
2022/03/05 00:31:21;;;;;;;9.32;2.92;;;;;;;5.38;60.14;102228.78;4755156;29;122378;-86
2022/03/05 00:33:46;;;;;;;11.70;3.47;;;;;;;5.49;59.46;102223.44;4771787;29;120063;-85
2022/03/05 00:36:12;;;;;;;11.52;3.03;;;;;;;5.50;59.78;102222.28;4759335;29;120294;-86
2022/03/05 00:38:37;;;;;;;9.15;2.80;;;;;;;5.56;59.25;102231.66;4752082;29;123244;-85
2022/03/05 00:41:03;;;;;;;12.18;3.47;;;;;;;5.55;59.11;102216.47;4759953;29;119784;-87
2022/03/05 00:43:28;;;;;;;11.10;3.65;;;;;;;5.62;59.18;102215.75;4755443;29;122553;-86
2022/03/05 00:45:54;;;;;;;11.27;2.80;;;;;;;5.71;58.84;102235.28;4743655;29;120047;-87
2022/03/05 00:48:19;;;;;;;9.48;2.85;;;;;;;5.75;58.82;102233.34;4756237;29;119857;-86
2022/03/05 00:50:46;;;;;;;10.18;2.88;;;;;;;5.78;58.75;102236.09;4771052;29;120752;-85
2022/03/05 00:53:12;;;;;;;10.98;2.92;;;;;;;5.75;58.45;102225.19;4758909;29;119684;-88
2022/03/05 00:55:38;;;;;;;8.60;2.65;;;;;;;5.80;58.39;102228.31;4771878;29;121867;-83
2022/03/05 00:58:04;;;;;;;8.40;2.53;;;;;;;5.77;58.51;102218.19;4755620;29;122094;-86
2022/03/05 01:00:29;;;;;;;9.23;3.30;;;;;;;5.81;58.47;102223.66;4772701;29;119975;-86
2022/03/05 01:02:55;;;;;;;8.13;2.50;;;;;;;5.76;58.15;102213.91;4759677;29;122654;-87
2022/03/05 01:05:21;;;;;;;7.70;3.47;;;;;;;5.79;57.86;102210.41;4754822;29;120696;-86
2022/03/05 01:07:47;;;;;;;8.07;3.47;;;;;;;5.73;57.94;102214.66;4757638;29;121617;-89
2022/03/05 01:10:12;;;;;;;8.95;3.10;;;;;;;5.70;57.80;102220.09;4756463;29;122565;-85
2022/03/05 01:12:38;;;;;;;6.88;2.83;;;;;;;5.70;57.53;102229.03;4770586;29;119535;-86
2022/03/05 01:15:05;;;;;;;8.85;2.75;;;;;;;5.65;57.55;102217.69;4772061;29;122145;-86
2022/03/05 01:17:30;;;;;;;9.38;2.75;;;;;;;5.54;57.32;102212.97;4758601;29;122610;-86
2022/03/05 01:19:56;;;;;;;7.30;2.70;;;;;;;5.57;57.42;102219.59;4754759;29;120749;-86
2022/03/05 01:22:22;;;;;;;6.35;2.72;;;;;;;5.50;56.85;102209.44;4756949;29;122506;-86
2022/03/05 01:24:47;;;;;;;8.35;2.80;;;;;;;5.34;56.94;102203.50;4762220;29;119833;-86
2022/03/05 01:27:13;;;;;;;8.70;3.33;;;;;;;5.44;57.09;102227.31;4772002;29;119828;-87
2022/03/05 01:29:38;;;;;;;6.93;2.53;;;;;;;5.40;57.11;102228.41;4754060;29;123558;-86
2022/03/05 01:32:04;;;;;;;8.15;2.70;;;;;;;5.29;57.01;102216.66;4758134;29;119708;-87
2022/03/05 01:34:30;;;;;;;8.93;2.90;;;;;;;5.23;57.38;102222.47;4757689;29;122133;-87
2022/03/05 01:36:56;;;;;;;8.48;3.00;;;;;;;5.22;57.93;102214.69;4741172;29;122548;-86
2022/03/05 01:39:22;;;;;;;7.13;2.70;;;;;;;5.23;57.70;102216.25;4741551;29;119811;-87
2022/03/05 01:41:49;;;;;;;10.23;2.80;;;;;;;5.21;57.66;102213.13;4772211;29;121846;-86
2022/03/05 01:44:25;;;;;;;6.13;2.80;;;;;;;5.20;57.50;102214.25;4774623;29;122538;-88
2022/03/05 01:46:51;;;;;;;7.50;2.55;;;;;;;4.90;57.71;102165.41;4770749;29;121549;-88
2022/03/05 01:49:16;;;;;;;6.65;2.22;;;;;;;5.14;58.00;102202.94;4757231;29;120301;-87
2022/03/05 01:51:43;;;;;;;8.07;2.40;;;;;;;5.27;57.58;102219.00;4771311;29;119707;-89
2022/03/05 01:54:09;;;;;;;10.95;2.22;;;;;;;5.25;57.35;102213.91;4758138;29;122425;-86
2022/03/05 01:56:37;;;;;;;9.70;2.58;;;;;;;5.17;57.44;102213.06;4787306;29;122132;-87
2022/03/05 01:59:04;;;;;;;9.27;2.90;;;;;;;5.20;57.78;102208.81;4740375;29;119863;-87
2022/03/05 02:01:30;;;;;;;8.70;2.13;;;;;;;5.20;58.24;102206.09;4758205;29;121658;-89
2022/03/05 02:03:56;;;;;;;8.48;2.42;;;;;;;5.29;57.82;102213.94;4744454;29;122903;-88
2022/03/05 02:06:23;;;;;;;7.88;2.40;;;;;;;5.31;57.86;102209.69;4761802;29;121937;-89
2022/03/05 02:08:49;;;;;;;5.45;1.88;;;;;;;5.32;57.15;102197.66;4742801;29;122671;-87
2022/03/05 02:11:18;;;;;;;6.00;2.28;;;;;;;5.34;57.23;102198.03;4744114;29;120032;-88
2022/03/05 02:13:44;;;;;;;7.93;2.10;;;;;;;5.40;57.14;102198.47;4760335;29;122009;-86
2022/03/05 02:16:10;;;;;;;6.78;1.77;;;;;;;5.54;57.31;102214.91;4742466;29;122742;-88
2022/03/05 02:18:36;;;;;;;6.53;1.77;;;;;;;5.55;57.26;102211.03;4743105;29;121542;-89
2022/03/05 02:21:02;;;;;;;8.95;2.03;;;;;;;5.61;56.60;102214.97;4760031;29;121628;-87
2022/03/05 02:23:27;;;;;;;9.38;1.70;;;;;;;5.55;56.54;102202.88;4756877;29;119753;-87
2022/03/05 02:26:00;;;;;;;5.30;1.83;;;;;;;5.57;56.57;102199.78;4754073;29;119591;-87
2022/03/05 02:28:27;;;;;;;7.60;1.77;;;;;;;5.62;56.26;102205.63;4748590;29;122129;-87
2022/03/05 02:30:54;;;;;;;7.32;2.08;;;;;;;5.71;56.37;102219.72;4753489;29;119640;-88
2022/03/05 02:33:19;;;;;;;6.07;2.10;;;;;;;5.69;56.23;102216.59;4759006;29;119505;-87
2022/03/05 02:35:46;;;;;;;9.68;2.00;;;;;;;5.75;55.81;102225.19;4759539;29;120678;-88
2022/03/05 02:38:20;;;;;;;8.27;2.17;;;;;;;5.70;55.90;102217.38;4759956;29;119522;-88
2022/03/05 02:40:47;;;;;;;9.32;2.17;;;;;;;5.78;55.67;102221.69;4763058;29;119694;-89
2022/03/05 02:43:13;;;;;;;6.53;1.95;;;;;;;5.75;55.27;102219.72;4742278;29;123390;-86
2022/03/05 02:45:40;;;;;;;4.72;2.05;;;;;;;5.73;55.27;102213.88;4744414;29;119718;-87
2022/03/05 02:48:08;;;;;;;8.38;2.05;;;;;;;5.78;55.93;102221.69;4772668;29;122421;-87
2022/03/05 02:50:35;;;;;;;7.05;2.10;;;;;;;5.68;55.51;102203.31;4761551;29;121009;-86
2022/03/05 02:53:04;;;;;;;7.10;2.00;;;;;;;5.76;55.64;102218.56;4729094;29;122020;-87
2022/03/05 02:55:30;;;;;;;7.63;1.90;;;;;;;5.64;55.83;102202.53;4756456;29;120283;-89
2022/03/05 02:57:56;;;;;;;8.32;1.85;;;;;;;5.69;55.49;102216.59;4772610;29;120284;-86
2022/03/05 03:00:24;;;;;;;10.18;1.92;;;;;;;5.63;55.13;102206.41;4760050;29;121550;-87
2022/03/05 03:02:49;;;;;;;4.38;1.75;;;;;;;5.59;55.09;102213.78;4745364;29;122790;-87
2022/03/05 03:05:16;;;;;;;7.68;2.00;;;;;;;5.57;55.28;102214.16;4744728;29;121236;-89
2022/03/05 03:07:45;;;;;;;8.43;2.25;;;;;;;5.21;55.04;102164.16;4760579;29;121282;-88
2022/03/05 03:10:12;;;;;;;6.50;2.22;;;;;;;5.40;55.21;102201.19;4745835;29;122812;-88
2022/03/05 03:12:38;;;;;;;6.25;1.98;;;;;;;5.43;55.03;102214.81;4767593;29;119927;-87
2022/03/05 03:15:06;;;;;;;6.00;1.70;;;;;;;5.35;55.16;102221.38;4758452;29;122941;-88
2022/03/05 03:17:46;;;;;;;7.15;1.90;;;;;;;5.37;55.50;102226.44;4747607;29;119438;-88
2022/03/05 03:20:14;;;;;;;6.00;2.00;;;;;;;5.26;55.43;102220.16;4729172;29;121881;-86
2022/03/05 03:22:40;;;;;;;6.95;2.15;;;;;;;5.17;55.28;102220.44;4739155;29;123204;-88
2022/03/05 03:25:06;;;;;;;7.05;2.28;;;;;;;5.14;54.71;102218.47;4759802;29;120099;-89
2022/03/05 03:27:34;;;;;;;7.35;2.53;;;;;;;5.07;54.83;102216.47;4756086;29;122841;-87
2022/03/05 03:30:03;;;;;;;7.50;2.47;;;;;;;4.96;55.13;102209.38;4758361;29;122781;-87
2022/03/05 03:32:28;;;;;;;8.57;2.05;;;;;;;4.87;55.23;102209.69;4761158;29;119662;-88
2022/03/05 03:34:54;;;;;;;5.75;2.20;;;;;;;4.83;54.80;102214.31;4778827;29;120096;-88
2022/03/05 03:37:20;;;;;;;5.80;2.08;;;;;;;4.71;55.17;102203.69;4761753;29;120356;-85
2022/03/05 03:39:48;;;;;;;5.50;2.00;;;;;;;4.67;55.43;102206.38;4760704;29;122350;-88
2022/03/05 03:42:14;;;;;;;6.32;2.60;;;;;;;4.61;55.79;102199.72;4746127;29;122542;-89
2022/03/05 03:44:40;;;;;;;5.38;2.10;;;;;;;4.52;55.53;102197.28;4747209;29;120842;-89
2022/03/05 03:47:06;;;;;;;4.80;2.17;;;;;;;4.61;56.03;102224.16;4746135;29;121321;-90
2022/03/05 03:49:31;;;;;;;6.15;2.15;;;;;;;4.42;56.13;102194.44;4756847;29;121839;-90
2022/03/05 03:51:57;;;;;;;5.88;2.00;;;;;;;4.47;56.12;102202.25;4783195;29;119731;-89
2022/03/05 03:54:23;;;;;;;9.43;2.40;;;;;;;4.34;56.07;102192.81;4785954;29;119506;-92
2022/03/05 03:56:51;;;;;;;5.47;2.30;;;;;;;4.51;55.58;102214.75;4761019;29;120163;-88
2022/03/05 03:59:17;;;;;;;6.75;2.63;;;;;;;4.47;55.90;102213.91;4760445;29;119876;-89
2022/03/05 04:01:43;;;;;;;8.55;3.50;;;;;;;4.27;56.20;102186.13;4761025;29;122803;-89
2022/03/05 04:04:11;;;;;;;9.15;3.03;;;;;;;4.43;55.88;102206.88;4746282;29;119764;-89
2022/03/05 04:09:24;;;;;;;6.63;2.38;;;;;;;4.30;55.26;102198.19;4745884;29;123240;-88
2022/03/05 04:11:49;;;;;;;7.32;2.90;;;;;;;4.29;55.83;102208.28;4777284;29;119421;-89
2022/03/05 04:14:15;;;;;;;9.43;2.80;;;;;;;4.24;55.60;102207.81;4743477;29;121598;-88
2022/03/05 04:16:41;;;;;;;9.68;3.10;;;;;;;4.15;55.64;102202.66;4749596;29;122770;-89
2022/03/05 04:19:07;;;;;;;7.45;3.08;;;;;;;4.14;55.03;102211.97;4761286;29;121948;-89
2022/03/05 04:21:32;;;;;;;6.95;2.58;;;;;;;4.06;54.90;102204.09;4747006;29;123262;-90
2022/03/05 04:24:01;;;;;;;9.77;2.90;;;;;;;4.08;54.95;102218.88;4761194;29;119861;-89
2022/03/05 04:26:29;;;;;;;9.38;3.28;;;;;;;4.00;55.16;102217.97;4746567;29;121761;-90
2022/03/05 04:29:00;;;;;;;7.75;3.25;;;;;;;3.77;55.43;102186.63;4744171;29;123350;-87
2022/03/05 04:31:29;;;;;;;7.97;3.10;;;;;;;3.98;55.38;102214.06;4744809;29;119786;-89
2022/03/05 04:33:55;;;;;;;6.85;3.15;;;;;;;3.82;55.76;102210.75;4760009;29;121395;-86
2022/03/05 04:36:22;;;;;;;8.75;3.00;;;;;;;3.89;55.63;102205.41;4760414;29;120116;-88
2022/03/05 04:38:50;;;;;;;7.55;4.20;;;;;;;3.92;55.59;102220.97;4777180;29;119910;-87
2022/03/05 04:41:18;;;;;;;10.82;3.90;;;;;;;3.87;55.53;102213.16;4742558;29;123560;-89
2022/03/05 04:43:47;;;;;;;10.77;4.20;;;;;;;3.76;55.79;102204.06;4746208;29;120866;-87
2022/03/05 04:46:13;;;;;;;13.77;5.05;;;;;;;3.49;55.68;102166.06;4774298;29;120490;-88
2022/03/05 04:48:41;;;;;;;8.65;3.67;;;;;;;3.73;56.06;102197.44;4744706;29;122796;-87
2022/03/05 04:51:10;;;;;;;7.75;3.03;;;;;;;3.76;55.81;102212.97;4750350;29;120103;-87
2022/03/05 04:53:36;;;;;;;6.38;2.78;;;;;;;3.52;55.82;102170.75;4761266;29;121982;-89
2022/03/05 04:56:01;;;;;;;9.68;2.70;;;;;;;3.73;55.60;102204.78;4744691;29;123022;-89
2022/03/05 04:58:27;;;;;;;9.45;2.33;;;;;;;3.69;55.57;102204.75;4773853;29;120844;-87
2022/03/05 05:00:52;;;;;;;6.07;2.53;;;;;;;3.65;55.73;102201.97;4734555;29;121703;-90
2022/03/05 05:03:18;;;;;;;9.07;2.80;;;;;;;3.70;55.93;102215.22;4773735;29;119803;-90
2022/03/05 05:05:43;;;;;;;7.32;2.72;;;;;;;3.66;56.11;102208.97;4757832;29;119761;-87
2022/03/05 05:08:09;;;;;;;6.50;2.63;;;;;;;3.74;56.49;102218.00;4760170;29;123505;-89
2022/03/05 05:10:35;;;;;;;4.60;2.40;;;;;;;3.74;56.36;102219.94;4773207;29;121719;-87
2022/03/05 05:13:00;;;;;;;8.00;2.63;;;;;;;3.86;57.19;102231.38;4748414;29;119457;-89
2022/03/05 05:15:26;;;;;;;6.95;2.78;;;;;;;3.85;56.76;102223.59;4759544;29;122817;-90
2022/03/05 05:17:51;;;;;;;8.57;2.88;;;;;;;3.98;57.43;102235.78;4745598;29;119901;-88
2022/03/05 05:20:17;;;;;;;8.02;2.70;;;;;;;3.98;57.35;102216.78;4757678;29;122210;-89
2022/03/05 05:22:43;;;;;;;8.20;2.92;;;;;;;4.05;57.10;102227.75;4763090;29;120313;-88
2022/03/05 05:25:08;;;;;;;7.82;3.22;;;;;;;3.99;56.98;102223.78;4774931;29;121620;-89
2022/03/05 05:27:40;;;;;;;5.93;2.83;;;;;;;4.20;56.71;102226.78;4743893;29;122832;-87
2022/03/05 05:30:07;;;;;;;6.95;2.97;;;;;;;4.26;56.68;102236.19;4771065;29;119370;-87
2022/03/05 05:32:35;;;;;;;6.45;2.53;;;;;;;4.25;56.97;102228.38;4745043;29;121841;-87
2022/03/05 05:35:02;;;;;;;7.43;3.20;;;;;;;4.31;57.21;102227.72;4751263;29;123362;-88
2022/03/05 05:37:27;;;;;;;11.85;3.33;;;;;;;4.47;57.21;102245.72;4729302;29;120688;-88
2022/03/05 05:39:56;;;;;;;8.07;3.50;;;;;;;4.38;56.98;102234.38;4758855;29;121873;-89
2022/03/05 05:42:21;;;;;;;9.30;3.38;;;;;;;4.53;57.15;102249.72;4760018;29;120285;-88
2022/03/05 05:44:50;;;;;;;7.65;3.40;;;;;;;4.43;57.46;102232.09;4779004;29;119775;-87
2022/03/05 05:47:16;;;;;;;7.32;3.28;;;;;;;4.55;57.22;102233.81;4756040;29;122993;-87
2022/03/05 05:49:44;;;;;;;7.18;3.30;;;;;;;4.63;57.11;102244.38;4744315;29;119382;-88
2022/03/05 05:52:10;;;;;;;7.35;3.30;;;;;;;4.63;57.16;102232.72;4760854;29;121895;-89
2022/03/05 05:54:37;;;;;;;7.88;3.35;;;;;;;4.68;57.18;102234.31;4759428;29;120364;-89
2022/03/05 05:57:03;;;;;;;7.63;3.05;;;;;;;4.74;57.32;102239.09;4744095;29;120653;-88
2022/03/05 05:59:29;;;;;;;7.97;3.10;;;;;;;4.78;57.49;102239.91;4745038;29;122249;-87
2022/03/05 06:01:56;;;;;;;6.63;3.05;;;;;;;4.75;57.19;102235.22;4758308;29;123306;-88
2022/03/05 06:04:24;;;;;;;7.15;3.10;;;;;;;4.85;57.13;102245.41;4767269;29;120161;-88
2022/03/05 06:06:50;;;;;;;7.90;3.72;;;;;;;4.94;57.37;102243.16;4771594;29;121500;-87
2022/03/05 06:09:15;;;;;;;9.02;3.72;;;;;;;5.01;56.99;102249.84;4773499;29;119490;-87
2022/03/05 06:11:41;;;;;;;9.35;3.33;;;;;;;5.01;57.67;102247.13;4729585;29;121674;-88
2022/03/05 06:14:07;;;;;;;8.57;3.30;;;;;;;5.01;57.45;102244.41;4742102;29;122833;-88
2022/03/05 06:16:33;;;;;;;6.65;2.97;;;;;;;5.05;57.03;102243.28;4745134;29;121041;-87
2022/03/05 06:18:58;;;;;;;6.53;2.78;;;;;;;5.04;56.96;102238.22;4745495;29;122580;-87
2022/03/05 06:21:24;;;;;;;6.93;2.90;;;;;;;4.87;57.25;102215.91;4742778;29;122136;-88
2022/03/05 06:23:50;;;;;;;6.13;2.50;;;;;;;5.10;57.53;102239.44;4759840;29;119560;-87
2022/03/05 06:26:15;;;;;;;6.75;2.88;;;;;;;5.26;57.58;102253.56;4792917;29;120892;-87
2022/03/05 06:28:43;;;;;;;7.60;2.72;;;;;;;5.24;57.69;102240.34;4758407;29;119883;-88
2022/03/05 06:31:09;;;;;;;6.75;2.92;;;;;;;5.29;57.84;102241.94;4757062;29;125338;-89
2022/03/05 06:33:34;;;;;;;8.25;3.28;;;;;;;5.35;57.51;102232.25;4763423;29;122970;-88
2022/03/05 06:36:03;;;;;;;7.75;2.95;;;;;;;5.36;57.62;102239.28;4748328;29;121149;-87
2022/03/05 06:38:29;;;;;;;10.00;3.15;;;;;;;5.58;57.76;102258.50;4761944;29;122231;-87
2022/03/05 06:40:55;;;;;;;6.60;2.47;;;;;;;5.49;57.42;102239.78;4762640;29;124617;-88
2022/03/05 06:43:21;;;;;;;8.52;3.70;;;;;;;5.57;57.98;102241.38;4746276;29;121063;-88
2022/03/05 06:45:47;;;;;;;7.47;3.30;;;;;;;5.60;57.39;102239.84;4745631;29;122320;-89
2022/03/05 06:48:13;;;;;;;7.55;3.38;;;;;;;5.71;57.67;102244.22;4794489;29;119852;-88
2022/03/05 06:50:39;;;;;;;8.77;3.67;;;;;;;5.74;58.11;102251.63;4762353;29;119477;-88
2022/03/05 06:53:05;;;;;;;8.52;3.53;;;;;;;5.69;57.59;102229.44;4746138;29;122647;-88
2022/03/05 06:55:30;;;;;;;8.88;4.20;;;;;;;5.90;57.96;102262.25;4747510;29;119590;-89
2022/03/05 06:57:56;;;;;;;10.30;4.82;;;;;;;5.92;57.94;102256.44;4773275;29;119586;-88
2022/03/05 07:00:21;;;;;;;8.13;4.30;;;;;;;5.88;57.92;102237.31;4759787;29;123424;-89
2022/03/05 07:02:48;;;;;;;9.85;3.78;;;;;;;6.00;58.15;102253.38;4745406;29;120967;-88
2022/03/05 07:05:14;;;;;;;7.32;3.17;;;;;;;6.14;57.90;102269.00;4772631;29;122189;-88
2022/03/05 07:07:40;;;;;;;9.60;2.83;;;;;;;6.21;57.45;102273.75;4778167;29;120364;-89
2022/03/05 07:10:06;;;;;;;6.03;2.75;;;;;;;6.21;57.55;102266.34;4766222;29;119708;-87
2022/03/05 07:12:33;;;;;;;6.70;2.55;;;;;;;6.29;57.72;102276.09;4761891;29;121586;-88
2022/03/05 07:14:59;;;;;;;5.70;2.80;;;;;;;6.39;57.04;102271.88;4761397;29;119673;-88
2022/03/05 07:17:25;;;;;;;6.65;2.80;;;;;;;6.50;56.59;102278.16;4737103;29;121626;-87
2022/03/05 07:19:51;;;;;;;7.25;3.10;;;;;;;6.49;56.77;102262.97;4792275;29;119864;-89
2022/03/05 07:22:17;;;;;;;6.47;3.08;;;;;;;6.57;56.75;102264.53;4748272;29;119668;-86
2022/03/05 07:24:43;;;;;;;7.65;3.05;;;;;;;6.65;57.11;102274.31;4746500;29;121484;-84
2022/03/05 07:27:09;;;;;;;5.93;2.53;;;;;;;6.76;56.51;102272.41;4768440;29;119850;-88
2022/03/05 07:29:34;;;;;;;6.05;2.50;;;;;;;6.81;56.34;102281.38;4746739;29;120267;-88
2022/03/05 07:32:03;;;;;;;6.53;2.28;;;;;;;6.84;55.49;102277.88;4748677;29;122584;-88
2022/03/05 07:34:30;;;;;;;5.13;2.17;;;;;;;6.89;55.40;102263.88;4745622;29;119540;-87
2022/03/05 07:36:56;;;;;;;5.38;2.53;;;;;;;7.02;55.71;102273.25;4762453;29;119839;-88
2022/03/05 07:39:21;;;;;;;5.50;2.08;;;;;;;7.10;55.42;102277.56;4745212;29;122509;-86
2022/03/05 07:41:49;;;;;;;5.80;2.30;;;;;;;7.16;54.92;102278.75;4760352;29;119515;-87
2022/03/05 07:44:20;;;;;;;6.80;2.30;;;;;;;7.18;55.71;102273.69;4758844;29;120614;-86
2022/03/05 07:46:46;;;;;;;6.68;2.55;;;;;;;7.25;54.98;102279.13;4760158;29;122529;-85
2022/03/05 07:49:12;;;;;;;4.93;2.20;;;;;;;7.36;54.93;102268.25;4759985;29;120710;-88
2022/03/05 07:51:37;;;;;;;5.07;2.45;;;;;;;7.45;54.49;102281.50;4765277;29;119581;-88
2022/03/05 07:54:04;;;;;;;7.82;2.30;;;;;;;7.53;53.44;102281.09;4777892;29;120077;-87
2022/03/05 07:56:30;;;;;;;5.68;2.25;;;;;;;7.60;54.20;102278.38;4773948;29;121697;-87
2022/03/05 07:58:55;;;;;;;7.38;2.25;;;;;;;7.65;54.15;102274.47;4744348;29;122525;-84
2022/03/05 08:01:21;;;;;;;10.02;2.50;;;;;;;7.74;54.40;102283.03;4774804;29;119685;-85
2022/03/05 08:03:47;;;;;;;5.90;2.47;;;;;;;7.85;54.12;102272.91;4760942;29;119669;-87
2022/03/05 08:06:12;;;;;;;8.30;2.47;;;;;;;7.90;53.14;102271.72;4745811;29;123327;-86
2022/03/05 08:08:38;;;;;;;10.68;2.13;;;;;;;7.99;53.13;102289.25;4758149;29;120090;-86
2022/03/05 08:11:04;;;;;;;6.50;2.33;;;;;;;8.05;53.29;102281.47;4790837;29;119829;-86
2022/03/05 08:13:30;;;;;;;10.15;2.55;;;;;;;8.14;52.65;102286.50;4748163;29;122584;-86
2022/03/05 08:15:56;;;;;;;7.93;2.03;;;;;;;8.12;52.98;102269.72;4759616;29;119782;-85
2022/03/05 08:18:22;;;;;;;5.47;2.15;;;;;;;8.21;51.85;102278.28;4760283;29;120927;-86
2022/03/05 08:20:48;;;;;;;7.72;2.30;;;;;;;8.25;52.43;102287.25;4744713;29;119924;-87
2022/03/05 08:23:16;;;;;;;6.18;2.35;;;;;;;8.26;52.49;102278.66;4772979;29;120036;-85
2022/03/05 08:25:41;;;;;;;7.38;2.50;;;;;;;8.36;51.92;102281.78;4745055;29;122863;-86
2022/03/05 08:28:09;;;;;;;8.38;2.45;;;;;;;8.38;53.06;102287.63;4772251;29;121403;-86
2022/03/05 08:30:35;;;;;;;13.18;2.75;;;;;;;8.42;52.30;102280.97;4758621;29;122177;-86
2022/03/05 08:33:01;;;;;;;8.30;2.22;;;;;;;8.58;52.10;102294.22;4757821;29;123676;-87
2022/03/05 08:35:27;;;;;;;6.45;2.40;;;;;;;8.68;51.74;102309.00;4746805;29;122018;-86
2022/03/05 08:37:52;;;;;;;9.38;2.55;;;;;;;8.69;51.59;102300.41;4744502;29;120317;-85
2022/03/05 08:40:19;;;;;;;7.30;2.47;;;;;;;8.73;51.53;102300.38;4744575;29;120037;-86
2022/03/05 08:42:46;;;;;;;6.15;2.40;;;;;;;8.75;51.10;102292.56;4761278;29;119701;-86
2022/03/05 08:45:13;;;;;;;5.90;2.25;;;;;;;8.94;50.56;102308.50;4786722;29;120025;-85
2022/03/05 08:47:39;;;;;;;5.95;2.33;;;;;;;9.01;50.37;102313.94;4764420;29;119826;-85
2022/03/05 08:50:06;;;;;;;13.93;3.10;;;;;;;9.06;51.43;102301.78;4762092;29;122008;-86
2022/03/05 08:52:36;;;;;;;7.35;2.63;;;;;;;9.15;50.63;102311.09;4781631;29;123087;-86
2022/03/05 08:55:07;;;;;;;6.60;2.70;;;;;;;9.23;50.36;102309.91;4743277;29;120312;-85
2022/03/05 08:57:33;;;;;;;12.90;2.22;;;;;;;9.30;49.54;102313.78;4746075;29;123188;-86
2022/03/05 08:59:59;;;;;;;7.03;2.22;;;;;;;9.33;49.51;102315.69;4752023;29;119858;-85
2022/03/05 09:02:25;;;;;;;5.13;1.85;;;;;;;9.39;48.51;102316.81;4774522;29;119804;-85
2022/03/05 09:04:51;;;;;;;8.68;2.30;;;;;;;9.39;48.83;102308.59;4758336;29;120045;-85
2022/03/05 09:07:17;;;;;;;6.57;2.10;;;;;;;9.45;47.77;102299.56;4760302;29;119639;-86
2022/03/05 09:09:42;;;;;;;5.05;1.95;;;;;;;9.50;47.58;102298.38;4776075;29;120486;-85
2022/03/05 09:12:13;;;;;;;6.20;2.00;;;;;;;9.63;47.66;102299.41;4772858;29;119903;-85
2022/03/05 09:14:38;;;;;;;5.78;1.80;;;;;;;9.68;47.87;102293.50;4742090;29;119831;-85
2022/03/05 09:17:04;;;;;;;6.50;2.13;;;;;;;9.80;47.32;102301.22;4775829;29;120250;-85
2022/03/05 09:19:30;;;;;;;8.40;2.30;;;;;;;9.82;46.11;102296.13;4762951;29;120055;-82
2022/03/05 09:21:56;;;;;;;6.82;2.05;;;;;;;9.82;47.28;102287.91;4757732;29;120991;-85
2022/03/05 09:24:21;;;;;;;7.63;1.65;;;;;;;9.90;45.69;102293.31;4755980;29;123093;-85
2022/03/05 09:26:47;;;;;;;5.35;2.05;;;;;;;9.89;44.98;102298.00;4761278;29;120453;-85
2022/03/05 09:29:13;;;;;;;5.63;1.63;;;;;;;9.79;44.39;102283.22;4742831;29;120728;-81
2022/03/05 09:31:39;;;;;;;4.82;1.80;;;;;;;9.76;43.99;102297.75;4742866;29;123335;-85
2022/03/05 09:34:05;;;;;;;5.68;1.73;;;;;;;9.71;44.83;102295.44;4760369;29;119895;-85
2022/03/05 09:36:31;;;;;;;6.10;2.03;;;;;;;9.74;45.81;102300.13;4758509;29;119395;-83
2022/03/05 09:38:57;;;;;;;5.63;1.85;;;;;;;9.75;45.20;102298.94;4756653;29;119908;-84
2022/03/05 09:41:23;;;;;;;4.15;1.63;;;;;;;9.70;44.26;102295.81;4762947;29;120021;-84
2022/03/05 09:43:50;;;;;;;5.72;2.17;;;;;;;9.54;44.14;102288.16;4758399;29;120246;-85
2022/03/05 09:46:22;;;;;;;6.05;1.88;;;;;;;9.51;44.05;102294.44;4758692;29;119659;-85
2022/03/05 09:48:52;;;;;;;8.93;2.15;;;;;;;9.38;43.46;102296.09;4757902;29;119531;-84
2022/03/05 09:51:21;;;;;;;5.25;1.60;;;;;;;9.34;44.04;102289.88;4773785;29;122768;-82
2022/03/05 09:53:47;;;;;;;4.47;2.17;;;;;;;9.24;44.20;102291.50;4773203;29;120752;-85
2022/03/05 09:56:12;;;;;;;10.18;2.15;;;;;;;9.17;45.18;102280.59;4758758;29;119609;-85
2022/03/05 09:58:38;;;;;;;3.90;1.83;;;;;;;9.18;44.24;102295.84;4744472;29;120044;-86
2022/03/05 10:01:04;;;;;;;7.50;2.10;;;;;;;9.14;44.37;102304.06;4762785;29;119394;-82
2022/03/05 10:03:42;;;;;;;4.22;1.80;;;;;;;9.13;43.79;102299.00;4755881;29;120373;-83
2022/03/05 10:06:22;;;;;;;7.72;2.00;;;;;;;9.12;44.84;102292.75;4770662;29;119641;-83
2022/03/05 10:08:51;;;;;;;4.22;1.73;;;;;;;9.12;44.84;102295.50;4773301;29;122720;-86
2022/03/05 10:11:19;;;;;;;3.83;1.77;;;;;;;9.07;45.00;102287.72;4754511;29;123165;-86
2022/03/05 10:13:45;;;;;;;6.00;1.80;;;;;;;9.06;44.29;102286.16;4728565;29;120276;-85
2022/03/05 10:16:29;;;;;;;5.63;1.95;;;;;;;9.14;45.51;102293.13;4729686;29;122562;-85
2022/03/05 10:19:15;;;;;;;5.18;1.70;;;;;;;9.20;45.28;102302.47;4773053;29;119783;-86
2022/03/05 10:22:08;;;;;;;4.78;1.70;;;;;;;9.27;44.82;102295.41;4770544;29;119961;-86
2022/03/05 10:24:39;;;;;;;5.03;1.90;;;;;;;9.35;44.73;102294.94;4755241;29;120034;-84
2022/03/05 10:27:08;;;;;;;3.85;1.50;;;;;;;9.50;44.98;102293.66;4761505;29;119749;-85
2022/03/05 10:29:37;;;;;;;5.95;2.00;;;;;;;9.62;44.59;102289.63;4742327;29;122209;-85
2022/03/05 10:32:10;;;;;;;4.82;1.92;;;;;;;9.71;43.96;102297.41;4756578;29;119993;-84
2022/03/05 10:34:44;;;;;;;4.53;1.88;;;;;;;9.77;43.77;102304.78;4771732;29;120469;-84
2022/03/05 10:37:13;;;;;;;7.35;2.30;;;;;;;9.70;43.20;102295.81;4758688;29;122153;-85
2022/03/05 10:39:38;;;;;;;7.53;2.97;;;;;;;9.57;43.00;102284.59;4758262;29;123017;-85
2022/03/05 10:42:23;;;;;;;3.80;1.80;;;;;;;9.63;43.38;102291.19;4743160;29;120016;-85
2022/03/05 10:45:17;;;;;;;4.97;2.25;;;;;;;9.60;43.59;102302.19;4751656;29;119995;-85
2022/03/05 10:47:46;;;;;;;6.22;2.08;;;;;;;9.42;43.20;102285.88;4746544;29;123793;-84
2022/03/05 10:50:30;;;;;;;6.95;2.25;;;;;;;9.48;43.91;102284.28;4780583;29;119592;-85
2022/03/05 10:53:02;;;;;;;9.40;2.40;;;;;;;9.62;44.14;102295.13;4742584;29;123198;-84
2022/03/05 10:55:35;;;;;;;7.00;2.28;;;;;;;9.60;43.41;102292.00;4727887;29;119633;-84
2022/03/05 10:58:13;;;;;;;5.18;2.20;;;;;;;9.70;43.26;102296.63;4760872;29;119890;-84
2022/03/05 11:00:40;;;;;;;6.88;2.08;;;;;;;9.69;43.39;102289.56;4771345;29;123292;-84
2022/03/05 11:03:06;;;;;;;6.53;2.05;;;;;;;9.71;42.91;102270.78;4744180;29;120158;-85
2022/03/05 11:05:32;;;;;;;5.05;1.73;;;;;;;9.84;43.09;102285.53;4769518;29;124168;-84
2022/03/05 11:07:59;;;;;;;3.95;1.80;;;;;;;9.87;43.62;102280.41;4758218;29;122839;-84
2022/03/05 11:10:29;;;;;;;5.75;2.22;;;;;;;9.99;43.11;102280.69;4760089;29;119836;-83
2022/03/05 11:13:03;;;;;;;6.50;1.75;;;;;;;10.16;42.72;102289.91;4751980;29;121078;-84
2022/03/05 11:15:30;;;;;;;6.40;2.13;;;;;;;10.26;43.05;102289.06;4752584;29;120292;-82
2022/03/05 11:17:58;;;;;;;5.18;1.73;;;;;;;10.39;42.02;102289.28;4750326;29;120452;-82
2022/03/05 11:20:25;;;;;;;4.35;1.92;;;;;;;10.36;42.07;102288.16;4753522;29;119873;-83
2022/03/05 11:22:55;;;;;;;3.92;1.60;;;;;;;10.39;42.76;102275.56;4757023;29;122059;-84
2022/03/05 11:25:25;;;;;;;4.72;1.75;;;;;;;10.47;43.37;102279.03;4745651;29;121134;-84
2022/03/05 11:27:59;;;;;;;4.10;1.48;;;;;;;10.64;41.88;102292.50;4757478;29;121476;-84